createdAt,value
2022-11-02T00:05:46.314Z,13.17
2022-11-02T00:15:47.980Z,13.23
2022-11-02T00:25:50.733Z,13.30
2022-11-02T00:35:53.315Z,13.25
2022-11-02T00:45:54.634Z,13.20
2022-11-02T00:55:55.978Z,13.24
2022-11-02T01:05:57.303Z,13.25
2022-11-02T01:15:58.652Z,13.29
2022-11-02T01:26:04.084Z,13.34
2022-11-02T01:36:06.636Z,13.43
2022-11-02T01:46:18.642Z,13.44
2022-11-02T02:06:30.029Z,13.38
2022-11-02T02:16:57.840Z,13.32
2022-11-02T02:27:05.526Z,13.33
2022-11-02T02:37:27.993Z,13.32
2022-11-02T02:47:33.424Z,13.28
2022-11-02T02:57:36.891Z,13.19
2022-11-02T03:19:08.041Z,13.37
2022-11-02T03:29:16.874Z,13.34
2022-11-02T03:39:23.852Z,13.30
2022-11-02T03:49:28.324Z,13.26
2022-11-02T03:59:32.870Z,13.20
2022-11-02T04:09:34.328Z,13.18
2022-11-02T04:19:35.668Z,13.14
2022-11-02T04:29:36.984Z,13.06
2022-11-02T04:39:38.324Z,13.03
2022-11-02T04:49:39.678Z,13.07
2022-11-02T04:59:41.019Z,12.99
2022-11-02T05:09:42.374Z,12.92
2022-11-02T05:19:43.704Z,12.86
2022-11-02T05:29:45.030Z,12.83
2022-11-02T05:39:49.492Z,12.79
2022-11-02T05:49:51.933Z,12.77
2022-11-02T05:59:53.267Z,12.66
2022-11-02T06:09:54.588Z,12.64
2022-11-02T06:19:55.946Z,12.58
2022-11-02T06:29:57.516Z,12.59
2022-11-02T06:39:58.879Z,12.58
2022-11-02T06:50:00.639Z,12.59
2022-11-02T07:10:11.272Z,12.69
2022-11-02T07:20:12.816Z,12.71
2022-11-02T07:30:14.166Z,12.70
2022-11-02T07:40:15.508Z,12.74
2022-11-02T07:50:19.243Z,12.76
2022-11-02T08:00:21.152Z,12.78
2022-11-02T08:10:22.493Z,12.74
2022-11-02T08:20:23.821Z,12.79
2022-11-02T08:30:26.704Z,12.86
2022-11-02T08:40:28.129Z,12.94
2022-11-02T08:50:29.896Z,13.01
2022-11-02T09:00:33.051Z,13.04
2022-11-02T09:10:36.149Z,13.10
2022-11-02T09:20:37.563Z,13.19
2022-11-02T09:30:38.914Z,13.33
2022-11-02T09:40:52.575Z,13.41
2022-11-02T09:51:02.399Z,13.56
2022-11-02T10:01:18.256Z,13.63
2022-11-02T10:11:50.072Z,13.74
2022-11-02T10:21:56.862Z,13.74
2022-11-02T10:31:58.240Z,13.78
2022-11-02T10:42:25.505Z,13.84
2022-11-02T10:52:35.268Z,14.00
2022-11-02T11:02:37.686Z,14.03
2022-11-02T11:12:40.920Z,14.07
2022-11-02T11:22:42.312Z,14.18
2022-11-02T11:32:47.878Z,14.16
2022-11-02T11:42:55.444Z,14.23
2022-11-02T11:53:26.214Z,14.40
2022-11-02T12:03:28.011Z,14.54
2022-11-02T12:13:44.985Z,14.52
2022-11-02T12:24:36.558Z,14.56
2022-11-02T12:35:27.747Z,14.64
2022-11-02T12:45:51.941Z,14.68
2022-11-02T12:55:56.900Z,14.81
2022-11-02T13:06:06.302Z,14.90
2022-11-02T13:16:09.305Z,14.97
2022-11-02T13:26:19.869Z,14.98
2022-11-02T13:36:21.400Z,15.03
2022-11-02T13:46:32.542Z,14.95
2022-11-02T13:56:37.076Z,15.03
2022-11-02T14:06:55.801Z,14.95
2022-11-02T14:16:59.109Z,14.97
2022-11-02T14:27:07.202Z,14.95
2022-11-02T14:37:35.154Z,14.98
2022-11-02T14:47:39.004Z,14.92
2022-11-02T14:57:52.261Z,14.84
2022-11-02T15:08:04.717Z,14.80
2022-11-02T15:18:24.224Z,14.66
2022-11-02T15:28:29.482Z,14.57
2022-11-02T15:38:36.683Z,14.45
2022-11-02T15:48:48.794Z,14.36
2022-11-02T15:59:02.447Z,14.25
2022-11-02T16:09:28.819Z,14.06
2022-11-02T16:19:30.299Z,13.90
2022-11-02T16:29:32.843Z,13.73
2022-11-02T16:39:37.471Z,13.54
2022-11-02T16:49:50.863Z,13.32
2022-11-02T17:00:01.354Z,13.14
2022-11-02T17:10:05.271Z,13.10
2022-11-02T17:20:15.137Z,12.87
2022-11-02T17:30:46.852Z,12.73
2022-11-02T17:40:52.052Z,12.60
2022-11-02T17:50:54.677Z,12.44
2022-11-02T18:00:56.271Z,12.44
2022-11-02T18:10:57.885Z,12.20
2022-11-02T18:20:59.464Z,12.08
2022-11-02T18:31:00.810Z,12.15
2022-11-02T18:41:26.595Z,12.08
2022-11-02T18:51:28.097Z,11.96
2022-11-02T19:01:29.594Z,11.93
2022-11-02T19:11:31.867Z,11.88
2022-11-02T19:21:33.332Z,11.95
2022-11-02T19:31:35.622Z,11.96
2022-11-02T19:41:38.812Z,11.88
2022-11-02T19:51:40.403Z,11.78
2022-11-02T20:01:43.382Z,11.82
2022-11-02T20:11:46.753Z,11.75
2022-11-02T20:21:48.208Z,11.78
2022-11-02T20:31:49.563Z,11.71
2022-11-02T20:41:55.715Z,11.81
2022-11-02T20:51:57.694Z,11.64
2022-11-02T21:01:59.093Z,11.69
2022-11-02T21:12:18.939Z,11.61
2022-11-02T21:22:20.259Z,11.49
2022-11-02T21:32:21.619Z,11.59
2022-11-02T21:42:22.958Z,11.47
2022-11-02T21:52:24.333Z,11.45
2022-11-02T22:02:25.826Z,11.46
2022-11-02T22:12:45.719Z,11.49
2022-11-02T22:22:47.101Z,11.50
2022-11-02T22:32:48.439Z,11.55
2022-11-02T22:42:53.735Z,11.61
2022-11-02T22:52:55.095Z,11.66
2022-11-02T23:02:56.464Z,11.68
2022-11-02T23:12:57.793Z,11.64
2022-11-02T23:23:18.104Z,11.59
2022-11-02T23:33:20.175Z,11.65
2022-11-02T23:43:21.537Z,11.67
2022-11-02T23:53:42.014Z,11.68
